Commerce City, CO

10:44 AM MST on February 08, 2016 (GMT -0700)
Stapleton | | Change Station
CLOSE
Current Station
Personal Weather Station
Location: Denver, CO
Elevation: 5298 ft
Nearby Weather Stations

Elev 5298 ft 39.77 °N, 104.88 °W | Updated 4 minutes ago

Partly Cloudy
Partly Cloudy
42.8 °F
Feels Like 43 °F
N
1.0
Wind Variable Wind from SE
Gusts 1.0 mph

Today
High -- | Low -- °F
--% Chance of Precip.
Yesterday
High -- | Low -- °F
Precip. -- in
Pressure 30.51 in
Visibility 10.0 miles
Clouds Few 8000 ft
Scattered Clouds 15000 ft
Mostly Cloudy 22000 ft
Windchill 43 °F
Dew Point 22 °F
Humidity 44%
Rainfall 0.00 in
Snow Depth Not available.
7:00 AM 5:27 PM
New Moon, 0% visible
METAR KDEN 081653Z 19004KT 10SM FEW080 SCT150 BKN220 M01/M08 A3040 RMK AO2 SLP332 T10111083
Pressure 30.51 in
Visibility 10.0 miles
Clouds Few 8000 ft
Scattered Clouds 15000 ft
Mostly Cloudy 22000 ft
Windchill 43 °F
Dew Point 22 °F
Humidity 44%
Rainfall 0.00 in
Snow Depth Not available.
7:00 AM 5:27 PM
New Moon, 0% visible
METAR KDEN 081653Z 19004KT 10SM FEW080 SCT150 BKN220 M01/M08 A3040 RMK AO2 SLP332 T10111083

10-Day Weather Forecast

Almanac

Astronomy

Feb. 08, 2016 Rise Set
Actual Time
Civil Twilight
Nautical Twilight
Astronomical Twilight
Moon
Length of Visible Light
Length of Day
Tomorrow will be .
, % of the Moon is Illuminated

Today's Extremes

State Highs State Lows

Community

WunderPhotos

Upload Photos

1,891,476 photos uploaded!

WunderBlog® & News

Nearby

Air Quality

  Air Quality AQ Index Pollutant
Not available.

Snow Depth

Station Depth Elevation

Earthquake Activity

City Distance Mag. Time & Date
Minimum magnitude displayed is 2.5.

Coastal Water Temperatures

Place Temperature

Stations

Nearby Weather Stations

Station Location Temp. Windchill Dew Point Humidity Wind Precip. Elev Updated Type
                   

Watches & Warnings

There are currently no watches in effect.